sensor_id;sensor_type;location;lat;lon;timestamp;P1;durP1;ratioP1;P2;durP2;ratioP2
4353;SDS011;11018;51.258;6.806;2023-05-10T00:01:04;18.80;;;13.45;;
4353;SDS011;11018;51.258;6.806;2023-05-10T00:03:30;23.07;;;14.33;;
4353;SDS011;11018;51.258;6.806;2023-05-10T00:05:55;20.77;;;13.77;;
4353;SDS011;11018;51.258;6.806;2023-05-10T00:08:21;21.48;;;14.00;;
4353;SDS011;11018;51.258;6.806;2023-05-10T00:10:47;20.67;;;14.17;;
4353;SDS011;11018;51.258;6.806;2023-05-10T00:13:13;25.27;;;15.40;;
4353;SDS011;11018;51.258;6.806;2023-05-10T00:15:38;21.83;;;15.33;;
4353;SDS011;11018;51.258;6.806;2023-05-10T00:18:04;26.30;;;15.80;;
4353;SDS011;11018;51.258;6.806;2023-05-10T00:20:29;24.55;;;15.32;;
4353;SDS011;11018;51.258;6.806;2023-05-10T00:22:55;24.83;;;16.07;;
4353;SDS011;11018;51.258;6.806;2023-05-10T00:25:20;26.87;;;16.17;;
4353;SDS011;11018;51.258;6.806;2023-05-10T00:27:46;26.23;;;16.80;;
4353;SDS011;11018;51.258;6.806;2023-05-10T00:30:12;24.20;;;15.80;;
4353;SDS011;11018;51.258;6.806;2023-05-10T00:32:38;23.63;;;15.95;;
4353;SDS011;11018;51.258;6.806;2023-05-10T00:35:03;24.15;;;15.60;;
4353;SDS011;11018;51.258;6.806;2023-05-10T00:37:29;24.90;;;16.33;;
4353;SDS011;11018;51.258;6.806;2023-05-10T00:39:55;23.98;;;16.40;;
4353;SDS011;11018;51.258;6.806;2023-05-10T00:42:21;25.05;;;15.73;;
4353;SDS011;11018;51.258;6.806;2023-05-10T00:44:47;20.17;;;13.50;;
4353;SDS011;11018;51.258;6.806;2023-05-10T00:47:12;26.60;;;15.40;;
4353;SDS011;11018;51.258;6.806;2023-05-10T00:49:38;24.27;;;14.10;;
4353;SDS011;11018;51.258;6.806;2023-05-10T00:52:04;21.38;;;13.40;;
4353;SDS011;11018;51.258;6.806;2023-05-10T00:54:29;22.83;;;12.90;;
4353;SDS011;11018;51.258;6.806;2023-05-10T00:56:55;23.13;;;13.30;;
4353;SDS011;11018;51.258;6.806;2023-05-10T00:59:22;23.17;;;12.38;;
4353;SDS011;11018;51.258;6.806;2023-05-10T01:01:47;19.83;;;12.10;;
4353;SDS011;11018;51.258;6.806;2023-05-10T01:04:13;17.80;;;12.20;;
4353;SDS011;11018;51.258;6.806;2023-05-10T01:06:40;17.05;;;11.32;;
4353;SDS011;11018;51.258;6.806;2023-05-10T01:09:06;18.90;;;11.75;;
4353;SDS011;11018;51.258;6.806;2023-05-10T01:11:35;19.48;;;12.30;;
4353;SDS011;11018;51.258;6.806;2023-05-10T01:14:01;20.45;;;12.98;;
4353;SDS011;11018;51.258;6.806;2023-05-10T01:16:27;22.75;;;13.60;;
4353;SDS011;11018;51.258;6.806;2023-05-10T01:18:57;24.52;;;15.57;;
4353;SDS011;11018;51.258;6.806;2023-05-10T01:21:38;30.75;;;16.10;;
4353;SDS011;11018;51.258;6.806;2023-05-10T01:25:19;27.65;;;17.17;;
4353;SDS011;11018;51.258;6.806;2023-05-10T01:27:23;29.98;;;17.70;;
4353;SDS011;11018;51.258;6.806;2023-05-10T01:30:47;30.63;;;18.87;;
4353;SDS011;11018;51.258;6.806;2023-05-10T01:33:11;26.25;;;17.10;;
4353;SDS011;11018;51.258;6.806;2023-05-10T01:35:54;25.17;;;16.17;;
4353;SDS011;11018;51.258;6.806;2023-05-10T01:38:29;23.80;;;15.63;;
4353;SDS011;11018;51.258;6.806;2023-05-10T01:41:25;20.38;;;13.60;;
4353;SDS011;11018;51.258;6.806;2023-05-10T01:44:16;22.98;;;14.32;;
4353;SDS011;11018;51.258;6.806;2023-05-10T01:46:43;20.48;;;14.00;;
4353;SDS011;11018;51.258;6.806;2023-05-10T01:49:26;21.10;;;13.40;;
4353;SDS011;11018;51.258;6.806;2023-05-10T01:51:59;20.02;;;13.20;;
4353;SDS011;11018;51.258;6.806;2023-05-10T01:54:31;20.20;;;13.85;;
4353;SDS011;11018;51.258;6.806;2023-05-10T01:57:03;20.10;;;13.73;;
4353;SDS011;11018;51.258;6.806;2023-05-10T01:59:34;24.80;;;13.90;;
4353;SDS011;11018;51.258;6.806;2023-05-10T02:02:01;21.42;;;13.60;;
4353;SDS011;11018;51.258;6.806;2023-05-10T02:04:29;22.95;;;15.02;;
4353;SDS011;11018;51.258;6.806;2023-05-10T02:06:55;23.92;;;15.77;;
4353;SDS011;11018;51.258;6.806;2023-05-10T02:09:21;28.27;;;17.30;;
4353;SDS011;11018;51.258;6.806;2023-05-10T02:11:50;24.95;;;16.67;;
4353;SDS011;11018;51.258;6.806;2023-05-10T02:14:15;27.00;;;17.50;;
4353;SDS011;11018;51.258;6.806;2023-05-10T02:16:43;27.30;;;17.27;;
4353;SDS011;11018;51.258;6.806;2023-05-10T02:19:11;26.48;;;17.10;;
4353;SDS011;11018;51.258;6.806;2023-05-10T02:21:39;24.90;;;17.23;;
4353;SDS011;11018;51.258;6.806;2023-05-10T02:24:05;25.58;;;17.17;;
4353;SDS011;11018;51.258;6.806;2023-05-10T02:26:32;24.25;;;16.05;;
4353;SDS011;11018;51.258;6.806;2023-05-10T02:29:01;25.15;;;16.58;;
4353;SDS011;11018;51.258;6.806;2023-05-10T02:31:28;22.67;;;14.85;;
4353;SDS011;11018;51.258;6.806;2023-05-10T02:33:58;23.20;;;15.67;;
4353;SDS011;11018;51.258;6.806;2023-05-10T02:36:25;21.27;;;14.35;;
4353;SDS011;11018;51.258;6.806;2023-05-10T02:38:52;23.50;;;14.30;;
4353;SDS011;11018;51.258;6.806;2023-05-10T02:41:18;21.65;;;14.23;;
4353;SDS011;11018;51.258;6.806;2023-05-10T02:43:47;20.33;;;13.43;;
4353;SDS011;11018;51.258;6.806;2023-05-10T02:46:20;18.27;;;12.95;;
4353;SDS011;11018;51.258;6.806;2023-05-10T02:48:46;19.67;;;13.20;;
4353;SDS011;11018;51.258;6.806;2023-05-10T02:51:12;21.07;;;13.50;;
4353;SDS011;11018;51.258;6.806;2023-05-10T02:53:42;19.90;;;14.13;;
4353;SDS011;11018;51.258;6.806;2023-05-10T02:56:15;22.67;;;14.27;;
4353;SDS011;11018;51.258;6.806;2023-05-10T02:58:50;20.42;;;13.15;;
4353;SDS011;11018;51.258;6.806;2023-05-10T03:01:15;21.70;;;13.73;;
4353;SDS011;11018;51.258;6.806;2023-05-10T03:03:41;23.90;;;14.53;;
4353;SDS011;11018;51.258;6.806;2023-05-10T03:06:07;18.73;;;13.47;;
4353;SDS011;11018;51.258;6.806;2023-05-10T03:08:32;22.87;;;13.53;;
4353;SDS011;11018;51.258;6.806;2023-05-10T03:11:06;19.33;;;13.50;;
4353;SDS011;11018;51.258;6.806;2023-05-10T03:16:45;21.42;;;14.30;;
4353;SDS011;11018;51.258;6.806;2023-05-10T03:21:50;20.38;;;13.70;;
4353;SDS011;11018;51.258;6.806;2023-05-10T03:24:18;20.90;;;13.90;;
4353;SDS011;11018;51.258;6.806;2023-05-10T03:26:47;23.03;;;14.47;;
4353;SDS011;11018;51.258;6.806;2023-05-10T03:29:14;21.00;;;13.80;;
4353;SDS011;11018;51.258;6.806;2023-05-10T03:31:40;22.63;;;14.07;;
4353;SDS011;11018;51.258;6.806;2023-05-10T03:34:06;22.95;;;14.82;;
4353;SDS011;11018;51.258;6.806;2023-05-10T03:36:32;20.27;;;14.10;;
4353;SDS011;11018;51.258;6.806;2023-05-10T03:38:58;22.90;;;14.63;;
4353;SDS011;11018;51.258;6.806;2023-05-10T03:41:23;22.33;;;15.00;;
4353;SDS011;11018;51.258;6.806;2023-05-10T03:43:50;22.95;;;15.50;;
4353;SDS011;11018;51.258;6.806;2023-05-10T03:46:16;23.27;;;14.80;;
4353;SDS011;11018;51.258;6.806;2023-05-10T03:48:41;22.45;;;14.50;;
4353;SDS011;11018;51.258;6.806;2023-05-10T03:51:07;26.10;;;15.60;;
4353;SDS011;11018;51.258;6.806;2023-05-10T03:53:33;22.67;;;14.90;;
4353;SDS011;11018;51.258;6.806;2023-05-10T03:55:58;25.60;;;15.45;;
4353;SDS011;11018;51.258;6.806;2023-05-10T03:58:24;24.67;;;15.40;;
4353;SDS011;11018;51.258;6.806;2023-05-10T04:00:50;27.20;;;16.90;;
4353;SDS011;11018;51.258;6.806;2023-05-10T04:03:16;27.58;;;15.70;;
4353;SDS011;11018;51.258;6.806;2023-05-10T04:05:42;27.83;;;17.48;;
4353;SDS011;11018;51.258;6.806;2023-05-10T04:08:08;28.47;;;17.73;;
4353;SDS011;11018;51.258;6.806;2023-05-10T04:10:33;30.67;;;18.25;;
4353;SDS011;11018;51.258;6.806;2023-05-10T04:12:59;31.77;;;19.30;;
4353;SDS011;11018;51.258;6.806;2023-05-10T04:15:25;31.20;;;19.30;;
4353;SDS011;11018;51.258;6.806;2023-05-10T04:17:50;32.33;;;18.50;;
4353;SDS011;11018;51.258;6.806;2023-05-10T04:20:16;32.25;;;20.40;;
4353;SDS011;11018;51.258;6.806;2023-05-10T04:22:42;32.40;;;19.85;;
4353;SDS011;11018;51.258;6.806;2023-05-10T04:25:08;34.95;;;19.67;;
4353;SDS011;11018;51.258;6.806;2023-05-10T04:27:33;33.63;;;20.25;;
4353;SDS011;11018;51.258;6.806;2023-05-10T04:29:59;35.20;;;21.15;;
4353;SDS011;11018;51.258;6.806;2023-05-10T04:32:25;34.55;;;20.88;;
4353;SDS011;11018;51.258;6.806;2023-05-10T04:34:50;39.40;;;21.27;;
4353;SDS011;11018;51.258;6.806;2023-05-10T04:37:17;41.10;;;22.48;;
4353;SDS011;11018;51.258;6.806;2023-05-10T04:39:42;40.33;;;22.40;;
4353;SDS011;11018;51.258;6.806;2023-05-10T04:42:08;41.22;;;22.58;;
4353;SDS011;11018;51.258;6.806;2023-05-10T04:44:34;42.72;;;23.17;;
4353;SDS011;11018;51.258;6.806;2023-05-10T04:47:00;41.55;;;23.73;;
4353;SDS011;11018;51.258;6.806;2023-05-10T04:49:27;43.33;;;24.27;;
4353;SDS011;11018;51.258;6.806;2023-05-10T04:51:52;44.03;;;25.05;;
4353;SDS011;11018;51.258;6.806;2023-05-10T04:54:18;47.88;;;24.85;;
4353;SDS011;11018;51.258;6.806;2023-05-10T04:56:44;44.90;;;25.30;;
4353;SDS011;11018;51.258;6.806;2023-05-10T04:59:09;45.00;;;25.63;;
4353;SDS011;11018;51.258;6.806;2023-05-10T05:01:35;39.60;;;23.50;;
4353;SDS011;11018;51.258;6.806;2023-05-10T05:04:01;48.90;;;27.13;;
4353;SDS011;11018;51.258;6.806;2023-05-10T05:06:26;45.00;;;26.40;;
4353;SDS011;11018;51.258;6.806;2023-05-10T05:08:52;43.83;;;24.20;;
4353;SDS011;11018;51.258;6.806;2023-05-10T05:11:18;45.25;;;25.05;;
4353;SDS011;11018;51.258;6.806;2023-05-10T05:13:43;45.00;;;25.80;;
4353;SDS011;11018;51.258;6.806;2023-05-10T05:16:11;47.42;;;26.27;;
4353;SDS011;11018;51.258;6.806;2023-05-10T05:18:37;50.30;;;26.90;;
4353;SDS011;11018;51.258;6.806;2023-05-10T05:21:03;46.08;;;25.13;;
4353;SDS011;11018;51.258;6.806;2023-05-10T05:23:37;42.58;;;23.00;;
4353;SDS011;11018;51.258;6.806;2023-05-10T05:26:03;42.00;;;24.33;;
4353;SDS011;11018;51.258;6.806;2023-05-10T05:28:29;45.03;;;23.97;;
4353;SDS011;11018;51.258;6.806;2023-05-10T05:30:57;43.85;;;24.52;;
4353;SDS011;11018;51.258;6.806;2023-05-10T05:33:23;44.10;;;23.80;;
4353;SDS011;11018;51.258;6.806;2023-05-10T05:35:48;39.10;;;23.48;;
4353;SDS011;11018;51.258;6.806;2023-05-10T05:38:15;36.15;;;20.75;;
4353;SDS011;11018;51.258;6.806;2023-05-10T05:40:42;39.40;;;20.97;;
4353;SDS011;11018;51.258;6.806;2023-05-10T05:43:07;34.33;;;20.27;;
4353;SDS011;11018;51.258;6.806;2023-05-10T05:45:33;34.08;;;20.20;;
4353;SDS011;11018;51.258;6.806;2023-05-10T05:47:59;33.92;;;19.92;;
4353;SDS011;11018;51.258;6.806;2023-05-10T05:50:24;39.58;;;20.02;;
4353;SDS011;11018;51.258;6.806;2023-05-10T05:52:50;32.63;;;19.42;;
4353;SDS011;11018;51.258;6.806;2023-05-10T05:55:16;38.00;;;19.90;;
4353;SDS011;11018;51.258;6.806;2023-05-10T05:57:41;36.53;;;19.63;;
4353;SDS011;11018;51.258;6.806;2023-05-10T06:00:07;38.57;;;21.43;;
4353;SDS011;11018;51.258;6.806;2023-05-10T06:02:33;38.08;;;20.42;;
4353;SDS011;11018;51.258;6.806;2023-05-10T06:04:58;36.93;;;21.03;;
4353;SDS011;11018;51.258;6.806;2023-05-10T06:07:24;36.65;;;21.60;;
4353;SDS011;11018;51.258;6.806;2023-05-10T06:09:50;37.17;;;21.98;;
4353;SDS011;11018;51.258;6.806;2023-05-10T06:12:15;44.60;;;21.20;;
4353;SDS011;11018;51.258;6.806;2023-05-10T06:14:41;37.15;;;21.25;;
4353;SDS011;11018;51.258;6.806;2023-05-10T06:17:07;40.47;;;20.90;;
4353;SDS011;11018;51.258;6.806;2023-05-10T06:19:32;35.10;;;19.90;;
4353;SDS011;11018;51.258;6.806;2023-05-10T06:21:58;35.80;;;21.17;;
4353;SDS011;11018;51.258;6.806;2023-05-10T06:24:23;40.22;;;20.25;;
4353;SDS011;11018;51.258;6.806;2023-05-10T06:26:49;34.93;;;20.43;;
4353;SDS011;11018;51.258;6.806;2023-05-10T06:29:15;35.63;;;20.13;;
4353;SDS011;11018;51.258;6.806;2023-05-10T06:31:41;38.30;;;21.70;;
4353;SDS011;11018;51.258;6.806;2023-05-10T06:34:06;44.03;;;23.30;;
4353;SDS011;11018;51.258;6.806;2023-05-10T06:36:33;48.88;;;26.13;;
4353;SDS011;11018;51.258;6.806;2023-05-10T06:38:58;51.00;;;26.27;;
4353;SDS011;11018;51.258;6.806;2023-05-10T06:41:24;48.50;;;26.85;;
4353;SDS011;11018;51.258;6.806;2023-05-10T06:43:49;57.30;;;28.03;;
4353;SDS011;11018;51.258;6.806;2023-05-10T06:46:15;50.13;;;27.50;;
4353;SDS011;11018;51.258;6.806;2023-05-10T06:48:41;48.83;;;25.90;;
4353;SDS011;11018;51.258;6.806;2023-05-10T06:51:06;49.70;;;25.70;;
4353;SDS011;11018;51.258;6.806;2023-05-10T06:53:32;46.17;;;24.45;;
4353;SDS011;11018;51.258;6.806;2023-05-10T06:55:57;40.45;;;23.17;;
4353;SDS011;11018;51.258;6.806;2023-05-10T06:58:23;44.03;;;23.03;;
4353;SDS011;11018;51.258;6.806;2023-05-10T07:00:49;44.47;;;23.45;;
4353;SDS011;11018;51.258;6.806;2023-05-10T07:03:15;43.03;;;23.73;;
4353;SDS011;11018;51.258;6.806;2023-05-10T07:05:40;35.47;;;21.80;;
4353;SDS011;11018;51.258;6.806;2023-05-10T07:08:06;47.00;;;23.47;;
4353;SDS011;11018;51.258;6.806;2023-05-10T07:10:32;53.30;;;26.20;;
4353;SDS011;11018;51.258;6.806;2023-05-10T07:12:58;52.27;;;25.37;;
4353;SDS011;11018;51.258;6.806;2023-05-10T07:15:23;54.13;;;25.43;;
4353;SDS011;11018;51.258;6.806;2023-05-10T07:17:49;52.28;;;25.35;;
4353;SDS011;11018;51.258;6.806;2023-05-10T07:20:15;51.10;;;25.50;;
4353;SDS011;11018;51.258;6.806;2023-05-10T07:22:40;49.27;;;24.30;;
4353;SDS011;11018;51.258;6.806;2023-05-10T07:25:06;47.20;;;24.33;;
4353;SDS011;11018;51.258;6.806;2023-05-10T07:27:32;42.65;;;22.60;;
4353;SDS011;11018;51.258;6.806;2023-05-10T07:29:57;45.75;;;22.08;;
4353;SDS011;11018;51.258;6.806;2023-05-10T07:32:23;36.97;;;20.65;;
4353;SDS011;11018;51.258;6.806;2023-05-10T07:34:49;38.70;;;20.88;;
4353;SDS011;11018;51.258;6.806;2023-05-10T07:37:14;40.63;;;20.05;;
4353;SDS011;11018;51.258;6.806;2023-05-10T07:39:40;35.53;;;20.50;;
4353;SDS011;11018;51.258;6.806;2023-05-10T07:42:05;37.20;;;18.67;;
4353;SDS011;11018;51.258;6.806;2023-05-10T07:44:31;35.40;;;18.52;;
4353;SDS011;11018;51.258;6.806;2023-05-10T07:46:56;31.10;;;17.63;;
4353;SDS011;11018;51.258;6.806;2023-05-10T07:49:22;35.80;;;18.50;;
4353;SDS011;11018;51.258;6.806;2023-05-10T07:51:50;34.93;;;18.83;;
4353;SDS011;11018;51.258;6.806;2023-05-10T07:54:16;29.10;;;17.80;;
4353;SDS011;11018;51.258;6.806;2023-05-10T07:56:42;37.20;;;18.60;;
4353;SDS011;11018;51.258;6.806;2023-05-10T07:59:14;36.85;;;21.83;;
4353;SDS011;11018;51.258;6.806;2023-05-10T08:01:41;51.72;;;24.35;;
4353;SDS011;11018;51.258;6.806;2023-05-10T08:04:07;47.03;;;26.17;;
4353;SDS011;11018;51.258;6.806;2023-05-10T08:06:33;58.75;;;28.55;;
4353;SDS011;11018;51.258;6.806;2023-05-10T08:08:59;55.83;;;28.67;;
4353;SDS011;11018;51.258;6.806;2023-05-10T08:11:25;58.30;;;30.27;;
4353;SDS011;11018;51.258;6.806;2023-05-10T08:13:52;61.22;;;31.33;;
4353;SDS011;11018;51.258;6.806;2023-05-10T08:16:18;66.93;;;31.23;;
4353;SDS011;11018;51.258;6.806;2023-05-10T08:18:44;62.15;;;33.05;;
4353;SDS011;11018;51.258;6.806;2023-05-10T08:21:11;64.00;;;32.28;;
4353;SDS011;11018;51.258;6.806;2023-05-10T08:23:37;64.82;;;33.67;;
4353;SDS011;11018;51.258;6.806;2023-05-10T08:26:03;65.18;;;32.95;;
4353;SDS011;11018;51.258;6.806;2023-05-10T08:28:29;57.55;;;32.47;;
4353;SDS011;11018;51.258;6.806;2023-05-10T08:30:54;58.60;;;32.47;;
4353;SDS011;11018;51.258;6.806;2023-05-10T08:33:20;62.63;;;32.47;;
4353;SDS011;11018;51.258;6.806;2023-05-10T08:35:46;57.80;;;30.50;;
4353;SDS011;11018;51.258;6.806;2023-05-10T08:38:11;62.28;;;33.10;;
4353;SDS011;11018;51.258;6.806;2023-05-10T08:40:37;62.78;;;31.88;;
4353;SDS011;11018;51.258;6.806;2023-05-10T08:43:08;59.92;;;31.75;;
4353;SDS011;11018;51.258;6.806;2023-05-10T08:45:39;59.97;;;31.15;;
4353;SDS011;11018;51.258;6.806;2023-05-10T08:48:10;57.22;;;30.17;;
4353;SDS011;11018;51.258;6.806;2023-05-10T08:50:37;61.15;;;32.40;;
4353;SDS011;11018;51.258;6.806;2023-05-10T08:53:05;58.42;;;31.48;;
4353;SDS011;11018;51.258;6.806;2023-05-10T08:55:34;58.63;;;31.38;;
4353;SDS011;11018;51.258;6.806;2023-05-10T08:58:05;57.22;;;30.70;;
4353;SDS011;11018;51.258;6.806;2023-05-10T09:00:31;55.47;;;30.73;;
4353;SDS011;11018;51.258;6.806;2023-05-10T09:02:57;59.50;;;30.90;;
4353;SDS011;11018;51.258;6.806;2023-05-10T09:05:23;60.38;;;29.30;;
4353;SDS011;11018;51.258;6.806;2023-05-10T09:07:49;52.35;;;28.00;;
4353;SDS011;11018;51.258;6.806;2023-05-10T09:10:15;49.58;;;27.35;;
4353;SDS011;11018;51.258;6.806;2023-05-10T09:12:41;56.15;;;28.60;;
4353;SDS011;11018;51.258;6.806;2023-05-10T09:15:09;49.20;;;25.80;;
4353;SDS011;11018;51.258;6.806;2023-05-10T09:17:35;48.53;;;24.73;;
4353;SDS011;11018;51.258;6.806;2023-05-10T09:20:02;42.50;;;22.93;;
4353;SDS011;11018;51.258;6.806;2023-05-10T09:22:31;35.63;;;20.87;;
4353;SDS011;11018;51.258;6.806;2023-05-10T09:25:31;41.00;;;21.20;;
4353;SDS011;11018;51.258;6.806;2023-05-10T09:27:49;39.53;;;21.30;;
4353;SDS011;11018;51.258;6.806;2023-05-10T09:30:16;39.53;;;20.83;;
4353;SDS011;11018;51.258;6.806;2023-05-10T09:32:48;34.35;;;19.38;;
4353;SDS011;11018;51.258;6.806;2023-05-10T09:35:15;33.15;;;19.73;;
4353;SDS011;11018;51.258;6.806;2023-05-10T09:37:43;34.20;;;18.23;;
4353;SDS011;11018;51.258;6.806;2023-05-10T09:40:12;27.90;;;16.98;;
4353;SDS011;11018;51.258;6.806;2023-05-10T09:42:39;32.47;;;19.10;;
4353;SDS011;11018;51.258;6.806;2023-05-10T09:45:07;31.95;;;17.83;;
4353;SDS011;11018;51.258;6.806;2023-05-10T09:47:36;34.42;;;18.58;;
4353;SDS011;11018;51.258;6.806;2023-05-10T09:50:03;27.37;;;16.53;;
4353;SDS011;11018;51.258;6.806;2023-05-10T09:55:23;28.20;;;17.65;;
4353;SDS011;11018;51.258;6.806;2023-05-10T09:58:00;25.80;;;16.30;;
4353;SDS011;11018;51.258;6.806;2023-05-10T10:00:26;30.42;;;16.27;;
4353;SDS011;11018;51.258;6.806;2023-05-10T10:02:58;26.37;;;15.67;;
4353;SDS011;11018;51.258;6.806;2023-05-10T10:05:31;23.90;;;15.05;;
4353;SDS011;11018;51.258;6.806;2023-05-10T10:07:58;27.48;;;15.20;;
4353;SDS011;11018;51.258;6.806;2023-05-10T10:10:25;24.10;;;15.48;;
4353;SDS011;11018;51.258;6.806;2023-05-10T10:12:52;24.00;;;14.43;;
4353;SDS011;11018;51.258;6.806;2023-05-10T10:15:18;24.70;;;15.98;;
4353;SDS011;11018;51.258;6.806;2023-05-10T10:17:45;25.58;;;15.80;;
4353;SDS011;11018;51.258;6.806;2023-05-10T10:20:13;28.15;;;17.45;;
4353;SDS011;11018;51.258;6.806;2023-05-10T10:22:40;28.52;;;17.80;;
4353;SDS011;11018;51.258;6.806;2023-05-10T10:25:06;31.33;;;18.37;;
4353;SDS011;11018;51.258;6.806;2023-05-10T10:27:39;31.40;;;18.10;;
4353;SDS011;11018;51.258;6.806;2023-05-10T10:31:10;35.33;;;17.67;;
4353;SDS011;11018;51.258;6.806;2023-05-10T10:35:58;37.55;;;20.67;;
4353;SDS011;11018;51.258;6.806;2023-05-10T10:38:25;33.95;;;19.75;;
4353;SDS011;11018;51.258;6.806;2023-05-10T10:41:03;32.40;;;18.53;;
4353;SDS011;11018;51.258;6.806;2023-05-10T10:43:35;30.27;;;17.50;;
4353;SDS011;11018;51.258;6.806;2023-05-10T10:46:16;30.70;;;16.67;;
4353;SDS011;11018;51.258;6.806;2023-05-10T10:51:38;29.58;;;16.48;;
4353;SDS011;11018;51.258;6.806;2023-05-10T10:54:10;25.73;;;15.73;;
4353;SDS011;11018;51.258;6.806;2023-05-10T10:56:36;27.55;;;15.82;;
4353;SDS011;11018;51.258;6.806;2023-05-10T10:59:01;28.23;;;16.50;;
4353;SDS011;11018;51.258;6.806;2023-05-10T11:01:28;31.10;;;16.63;;
4353;SDS011;11018;51.258;6.806;2023-05-10T11:06:31;29.17;;;18.45;;
4353;SDS011;11018;51.258;6.806;2023-05-10T11:08:58;28.23;;;17.60;;
4353;SDS011;11018;51.258;6.806;2023-05-10T11:11:30;31.65;;;18.70;;
4353;SDS011;11018;51.258;6.806;2023-05-10T11:13:56;31.50;;;18.15;;
4353;SDS011;11018;51.258;6.806;2023-05-10T11:16:28;34.58;;;19.40;;
4353;SDS011;11018;51.258;6.806;2023-05-10T11:19:11;34.42;;;20.75;;
4353;SDS011;11018;51.258;6.806;2023-05-10T11:21:48;34.97;;;20.27;;
4353;SDS011;11018;51.258;6.806;2023-05-10T11:24:15;30.73;;;20.52;;
4353;SDS011;11018;51.258;6.806;2023-05-10T11:26:42;34.65;;;21.27;;
4353;SDS011;11018;51.258;6.806;2023-05-10T11:29:08;35.13;;;21.13;;
4353;SDS011;11018;51.258;6.806;2023-05-10T11:31:34;34.30;;;21.65;;
4353;SDS011;11018;51.258;6.806;2023-05-10T11:34:00;35.90;;;21.67;;
4353;SDS011;11018;51.258;6.806;2023-05-10T11:36:32;34.80;;;21.30;;
4353;SDS011;11018;51.258;6.806;2023-05-10T11:38:59;39.13;;;22.90;;
4353;SDS011;11018;51.258;6.806;2023-05-10T11:41:25;35.90;;;22.58;;
4353;SDS011;11018;51.258;6.806;2023-05-10T11:43:53;35.75;;;22.63;;
4353;SDS011;11018;51.258;6.806;2023-05-10T11:46:20;37.00;;;21.80;;
4353;SDS011;11018;51.258;6.806;2023-05-10T11:48:49;34.05;;;21.52;;
4353;SDS011;11018;51.258;6.806;2023-05-10T11:51:19;34.22;;;19.55;;
4353;SDS011;11018;51.258;6.806;2023-05-10T11:53:49;38.03;;;19.70;;
4353;SDS011;11018;51.258;6.806;2023-05-10T11:56:19;28.63;;;19.60;;
4353;SDS011;11018;51.258;6.806;2023-05-10T11:58:53;30.42;;;20.83;;
4353;SDS011;11018;51.258;6.806;2023-05-10T12:01:20;27.80;;;17.55;;
4353;SDS011;11018;51.258;6.806;2023-05-10T12:03:47;25.10;;;17.40;;
4353;SDS011;11018;51.258;6.806;2023-05-10T12:06:18;31.10;;;18.40;;
4353;SDS011;11018;51.258;6.806;2023-05-10T12:08:45;36.83;;;20.17;;
4353;SDS011;11018;51.258;6.806;2023-05-10T12:11:11;35.05;;;18.20;;
4353;SDS011;11018;51.258;6.806;2023-05-10T12:13:41;28.30;;;17.87;;
4353;SDS011;11018;51.258;6.806;2023-05-10T12:16:17;32.00;;;18.80;;
4353;SDS011;11018;51.258;6.806;2023-05-10T12:18:43;30.80;;;19.00;;
4353;SDS011;11018;51.258;6.806;2023-05-10T12:21:09;30.02;;;17.48;;
4353;SDS011;11018;51.258;6.806;2023-05-10T12:23:36;27.08;;;16.23;;
4353;SDS011;11018;51.258;6.806;2023-05-10T12:26:03;26.98;;;17.00;;
4353;SDS011;11018;51.258;6.806;2023-05-10T12:28:30;23.40;;;15.18;;
4353;SDS011;11018;51.258;6.806;2023-05-10T12:30:57;22.65;;;15.63;;
4353;SDS011;11018;51.258;6.806;2023-05-10T12:33:24;21.58;;;14.60;;
4353;SDS011;11018;51.258;6.806;2023-05-10T12:35:51;23.35;;;15.40;;
4353;SDS011;11018;51.258;6.806;2023-05-10T12:38:24;23.63;;;15.30;;
4353;SDS011;11018;51.258;6.806;2023-05-10T12:40:50;20.10;;;14.73;;
4353;SDS011;11018;51.258;6.806;2023-05-10T12:43:15;24.00;;;16.00;;
4353;SDS011;11018;51.258;6.806;2023-05-10T12:45:41;26.20;;;15.70;;
4353;SDS011;11018;51.258;6.806;2023-05-10T12:48:06;30.45;;;17.58;;
4353;SDS011;11018;51.258;6.806;2023-05-10T12:50:32;24.93;;;15.93;;
4353;SDS011;11018;51.258;6.806;2023-05-10T12:52:58;29.03;;;17.30;;
4353;SDS011;11018;51.258;6.806;2023-05-10T12:55:23;31.13;;;18.75;;
4353;SDS011;11018;51.258;6.806;2023-05-10T12:57:49;28.53;;;19.10;;
4353;SDS011;11018;51.258;6.806;2023-05-10T13:00:14;28.80;;;18.30;;
4353;SDS011;11018;51.258;6.806;2023-05-10T13:02:40;28.73;;;18.60;;
4353;SDS011;11018;51.258;6.806;2023-05-10T13:05:06;28.73;;;19.08;;
4353;SDS011;11018;51.258;6.806;2023-05-10T13:07:31;27.70;;;19.20;;
4353;SDS011;11018;51.258;6.806;2023-05-10T13:09:57;31.33;;;19.80;;
4353;SDS011;11018;51.258;6.806;2023-05-10T13:12:23;31.10;;;19.83;;
4353;SDS011;11018;51.258;6.806;2023-05-10T13:14:48;27.90;;;19.40;;
4353;SDS011;11018;51.258;6.806;2023-05-10T13:17:14;30.10;;;20.50;;
4353;SDS011;11018;51.258;6.806;2023-05-10T13:19:39;29.93;;;20.17;;
4353;SDS011;11018;51.258;6.806;2023-05-10T13:22:05;28.83;;;19.60;;
4353;SDS011;11018;51.258;6.806;2023-05-10T13:24:30;29.07;;;18.60;;
4353;SDS011;11018;51.258;6.806;2023-05-10T13:26:56;27.97;;;20.00;;
4353;SDS011;11018;51.258;6.806;2023-05-10T13:29:23;27.45;;;20.40;;
4353;SDS011;11018;51.258;6.806;2023-05-10T13:31:48;29.50;;;20.27;;
4353;SDS011;11018;51.258;6.806;2023-05-10T13:34:14;29.45;;;19.45;;
4353;SDS011;11018;51.258;6.806;2023-05-10T13:36:39;28.50;;;20.20;;
4353;SDS011;11018;51.258;6.806;2023-05-10T13:39:06;27.65;;;19.33;;
4353;SDS011;11018;51.258;6.806;2023-05-10T13:41:31;31.07;;;22.20;;
4353;SDS011;11018;51.258;6.806;2023-05-10T13:43:57;30.73;;;21.10;;
4353;SDS011;11018;51.258;6.806;2023-05-10T13:46:22;29.43;;;19.50;;
4353;SDS011;11018;51.258;6.806;2023-05-10T13:48:48;29.87;;;19.47;;
4353;SDS011;11018;51.258;6.806;2023-05-10T13:51:13;28.88;;;19.58;;
4353;SDS011;11018;51.258;6.806;2023-05-10T13:53:39;26.87;;;19.33;;
4353;SDS011;11018;51.258;6.806;2023-05-10T13:56:04;28.20;;;19.30;;
4353;SDS011;11018;51.258;6.806;2023-05-10T13:58:30;27.60;;;19.57;;
4353;SDS011;11018;51.258;6.806;2023-05-10T14:00:56;30.60;;;20.80;;
4353;SDS011;11018;51.258;6.806;2023-05-10T14:03:21;30.45;;;19.75;;
4353;SDS011;11018;51.258;6.806;2023-05-10T14:05:47;29.53;;;19.60;;
4353;SDS011;11018;51.258;6.806;2023-05-10T14:08:13;27.67;;;20.00;;
4353;SDS011;11018;51.258;6.806;2023-05-10T14:10:39;28.47;;;18.67;;
4353;SDS011;11018;51.258;6.806;2023-05-10T14:13:05;29.00;;;19.70;;
4353;SDS011;11018;51.258;6.806;2023-05-10T14:15:31;27.58;;;18.50;;
4353;SDS011;11018;51.258;6.806;2023-05-10T14:17:56;26.48;;;18.38;;
4353;SDS011;11018;51.258;6.806;2023-05-10T14:20:22;25.27;;;17.90;;
4353;SDS011;11018;51.258;6.806;2023-05-10T14:22:48;32.43;;;19.10;;
4353;SDS011;11018;51.258;6.806;2023-05-10T14:25:13;25.67;;;18.20;;
4353;SDS011;11018;51.258;6.806;2023-05-10T14:27:39;26.80;;;18.90;;
4353;SDS011;11018;51.258;6.806;2023-05-10T14:30:05;30.27;;;18.30;;
4353;SDS011;11018;51.258;6.806;2023-05-10T14:32:31;25.17;;;17.27;;
4353;SDS011;11018;51.258;6.806;2023-05-10T14:34:57;24.85;;;17.40;;
4353;SDS011;11018;51.258;6.806;2023-05-10T14:37:22;28.30;;;17.70;;
4353;SDS011;11018;51.258;6.806;2023-05-10T14:39:48;24.77;;;17.17;;
4353;SDS011;11018;51.258;6.806;2023-05-10T14:42:13;26.63;;;16.27;;
4353;SDS011;11018;51.258;6.806;2023-05-10T14:44:39;24.38;;;16.88;;
4353;SDS011;11018;51.258;6.806;2023-05-10T14:47:05;25.40;;;16.77;;
4353;SDS011;11018;51.258;6.806;2023-05-10T14:49:30;30.85;;;17.45;;
4353;SDS011;11018;51.258;6.806;2023-05-10T14:51:56;21.87;;;14.80;;